Time;durP1;ratioP1;P1;durP2;ratioP2;P2;SDS_P1;SDS_P2;PMS_P1;PMS_P2;Temp;Humidity;BMP_temperature;BMP_pressure;BME280_temperature;BME280_humidity;BME280_pressure;Samples;Min_cycle;Max_cycle;Signal;HPM_P1;HPM_P2
2021/09/24 00:01:12;;;;;;;17.70;10.15;;;;;;;6.31;100.00;99340.03;1726535;82;22169;-81
2021/09/24 00:03:40;;;;;;;16.12;9.65;;;;;;;6.32;100.00;99331.27;1712615;83;21053;-80
2021/09/24 00:06:08;;;;;;;16.85;10.45;;;;;;;6.31;100.00;99323.04;1706984;83;21619;-81
2021/09/24 00:08:34;;;;;;;15.80;9.53;;;;;;;6.29;100.00;99317.00;1706859;84;21131;-82
2021/09/24 00:11:00;;;;;;;15.10;10.25;;;;;;;6.29;100.00;99314.38;1706634;83;21057;-80
2021/09/24 00:13:27;;;;;;;13.53;9.95;;;;;;;6.29;100.00;99315.70;1706749;83;21518;-81
2021/09/24 00:15:55;;;;;;;18.87;10.23;;;;;;;6.31;100.00;99304.73;1706549;84;21041;-82
2021/09/24 00:18:21;;;;;;;14.10;9.88;;;;;;;6.32;100.00;99298.58;1706848;84;21572;-80
2021/09/24 00:20:47;;;;;;;14.78;10.35;;;;;;;6.30;100.00;99283.39;1706797;84;21542;-80
2021/09/24 00:23:15;;;;;;;19.40;10.55;;;;;;;6.32;100.00;99277.66;1706574;84;21061;-78
2021/09/24 00:25:44;;;;;;;18.35;10.32;;;;;;;6.33;100.00;99271.55;1730206;82;21695;-78
2021/09/24 00:28:12;;;;;;;14.60;10.35;;;;;;;6.33;100.00;99266.31;1712308;83;21604;-78
2021/09/24 00:30:40;;;;;;;15.95;9.63;;;;;;;6.34;100.00;99261.47;1712396;83;21049;-77
2021/09/24 00:33:06;;;;;;;13.90;9.30;;;;;;;6.34;100.00;99257.55;1712420;83;21118;-78
2021/09/24 00:35:32;;;;;;;14.87;9.25;;;;;;;6.36;100.00;99258.36;1712567;83;21497;-80
2021/09/24 00:37:59;;;;;;;18.02;10.78;;;;;;;6.39;100.00;99256.94;1712660;83;21114;-78
2021/09/24 00:40:25;;;;;;;18.57;10.53;;;;;;;6.41;100.00;99258.20;1712617;83;21017;-80
2021/09/24 00:42:51;;;;;;;18.40;10.10;;;;;;;6.41;100.00;99256.44;1712551;83;21045;-82
2021/09/24 00:45:19;;;;;;;18.57;9.95;;;;;;;6.42;100.00;99249.01;1712323;83;21100;-81
2021/09/24 00:47:47;;;;;;;14.90;10.45;;;;;;;6.45;100.00;99238.43;1712671;83;21073;-81
2021/09/24 00:50:14;;;;;;;15.98;9.58;;;;;;;6.44;100.00;99236.73;1705518;83;21994;-80
2021/09/24 00:52:40;;;;;;;17.15;10.72;;;;;;;6.44;100.00;99230.20;1704958;84;21050;-82
2021/09/24 00:55:08;;;;;;;16.85;9.98;;;;;;;6.48;100.00;99227.84;1704644;84;21088;-83
2021/09/24 00:57:34;;;;;;;19.17;11.12;;;;;;;6.49;100.00;99221.73;1704977;84;21061;-81
2021/09/24 01:00:03;;;;;;;19.80;10.20;;;;;;;6.54;100.00;99222.03;1704702;84;21600;-82
2021/09/24 01:02:30;;;;;;;20.23;11.38;;;;;;;6.54;100.00;99211.56;1684697;84;21771;-83
2021/09/24 01:04:56;;;;;;;16.77;11.38;;;;;;;6.54;100.00;99212.88;1704457;84;21049;-82
2021/09/24 01:07:23;;;;;;;17.82;11.38;;;;;;;6.51;100.00;99210.77;1704727;84;21089;-82
2021/09/24 01:09:51;;;;;;;16.17;10.40;;;;;;;6.54;100.00;99203.72;1705035;83;21109;-80
2021/09/24 01:12:19;;;;;;;18.05;11.00;;;;;;;6.56;100.00;99203.21;1704911;83;21089;-83
2021/09/24 01:14:47;;;;;;;17.90;11.12;;;;;;;6.56;100.00;99205.83;1704782;84;21562;-84
2021/09/24 01:17:15;;;;;;;16.93;10.53;;;;;;;6.55;100.00;99190.56;1712586;82;21093;-82
2021/09/24 01:19:42;;;;;;;16.17;10.88;;;;;;;6.56;100.00;99190.13;1734137;82;21043;-81
2021/09/24 01:22:10;;;;;;;16.55;10.82;;;;;;;6.58;100.00;99188.29;1734081;82;21485;-82
2021/09/24 01:24:36;;;;;;;18.37;11.70;;;;;;;6.59;100.00;99190.02;1733870;82;22150;-83
2021/09/24 01:27:04;;;;;;;17.25;10.80;;;;;;;6.61;100.00;99180.35;1706878;82;21160;-82
2021/09/24 01:29:32;;;;;;;21.10;11.70;;;;;;;6.61;100.00;99178.58;1704485;83;21075;-81
2021/09/24 01:32:00;;;;;;;19.05;10.32;;;;;;;6.63;100.00;99166.77;1704499;83;21644;-81
2021/09/24 01:34:26;;;;;;;16.02;10.23;;;;;;;6.66;100.00;99164.03;1704590;84;21086;-79
2021/09/24 01:36:53;;;;;;;17.20;11.20;;;;;;;6.66;100.00;99157.02;1704449;83;21042;-81
2021/09/24 01:39:20;;;;;;;15.10;9.63;;;;;;;6.65;100.00;99148.79;1704454;84;21553;-79
2021/09/24 01:41:48;;;;;;;17.30;11.45;;;;;;;6.67;100.00;99144.78;1704364;83;21042;-82
2021/09/24 01:44:15;;;;;;;19.50;11.60;;;;;;;6.70;100.00;99134.23;1728812;82;21058;-81
2021/09/24 01:46:44;;;;;;;18.67;12.00;;;;;;;6.71;100.00;99129.38;1669059;85;21616;-81
2021/09/24 01:49:13;;;;;;;16.25;10.43;;;;;;;6.73;100.00;99129.72;1734106;82;21572;-78
2021/09/24 01:51:43;;;;;;;18.82;11.90;;;;;;;6.75;100.00;99132.29;1737769;82;21607;-79
2021/09/24 01:54:12;;;;;;;17.98;10.50;;;;;;;6.76;100.00;99126.13;1737597;82;21073;-80
2021/09/24 01:56:39;;;;;;;20.85;11.83;;;;;;;6.76;100.00;99107.81;1737728;82;21065;-79
2021/09/24 01:59:05;;;;;;;18.57;13.00;;;;;;;6.79;100.00;99107.72;1738083;82;21098;-80
2021/09/24 02:01:31;;;;;;;16.62;11.50;;;;;;;6.79;100.00;99099.88;1737817;82;21592;-79
2021/09/24 02:04:01;;;;;;;17.42;11.53;;;;;;;6.80;100.00;99091.09;1737813;82;21133;-79
2021/09/24 02:06:30;;;;;;;18.27;12.33;;;;;;;6.83;100.00;99084.45;1737535;82;21102;-77
2021/09/24 02:08:57;;;;;;;17.35;11.50;;;;;;;6.84;100.00;99086.14;1664650;86;21065;-77
2021/09/24 02:11:24;;;;;;;21.35;11.38;;;;;;;6.85;100.00;99076.06;1737715;82;21043;-77
2021/09/24 02:13:52;;;;;;;17.07;10.45;;;;;;;6.87;100.00;99078.16;1737833;82;21030;-77
2021/09/24 02:16:18;;;;;;;22.25;13.38;;;;;;;6.88;100.00;99070.73;1737608;82;21102;-76
2021/09/24 02:18:46;;;;;;;25.12;13.00;;;;;;;6.89;100.00;99072.42;1737811;82;21010;-79
2021/09/24 02:21:12;;;;;;;24.90;13.53;;;;;;;6.92;100.00;99068.39;1737620;82;22270;-83
2021/09/24 02:23:39;;;;;;;24.32;13.72;;;;;;;6.96;100.00;99056.48;1738032;82;21546;-78
2021/09/24 02:26:08;;;;;;;25.23;13.60;;;;;;;6.98;100.00;99059.90;1738048;82;21117;-78
2021/09/24 02:28:35;;;;;;;22.00;13.40;;;;;;;6.99;100.00;99057.66;1738363;82;21683;-76
2021/09/24 02:31:01;;;;;;;18.65;13.28;;;;;;;7.00;100.00;99044.98;1741485;82;21046;-75
2021/09/24 02:33:29;;;;;;;20.35;13.40;;;;;;;7.03;100.00;99040.93;1741454;82;20979;-77
2021/09/24 02:35:56;;;;;;;23.07;14.03;;;;;;;7.05;100.00;99029.94;1739301;82;22077;-80
2021/09/24 02:38:22;;;;;;;19.57;12.70;;;;;;;7.07;100.00;99022.88;1738158;82;21038;-77
2021/09/24 02:40:50;;;;;;;19.95;13.65;;;;;;;7.09;100.00;99023.68;1737942;82;21170;-77
2021/09/24 02:43:16;;;;;;;19.30;13.30;;;;;;;7.10;100.00;99013.13;1737711;82;21050;-76
2021/09/24 02:45:42;;;;;;;22.17;14.23;;;;;;;7.13;100.00;99010.40;1737812;82;21125;-77
2021/09/24 02:48:11;;;;;;;18.85;13.22;;;;;;;7.14;100.00;99000.31;1737528;82;21363;-75
2021/09/24 02:50:39;;;;;;;23.27;13.60;;;;;;;7.16;100.00;98992.41;1737818;82;21102;-76
2021/09/24 02:53:07;;;;;;;21.30;13.65;;;;;;;7.18;100.00;98993.19;1664580;85;21089;-77
2021/09/24 02:55:34;;;;;;;21.85;14.40;;;;;;;7.22;100.00;98988.20;1737955;82;21029;-76
2021/09/24 02:58:02;;;;;;;19.23;12.98;;;;;;;7.24;100.00;98981.13;1739474;82;21074;-77
2021/09/24 03:00:30;;;;;;;22.85;14.45;;;;;;;7.26;100.00;98978.00;1709242;82;21064;-78
2021/09/24 03:02:56;;;;;;;22.67;14.43;;;;;;;7.29;100.00;98968.72;1739690;82;21100;-79
2021/09/24 03:05:24;;;;;;;21.45;14.00;;;;;;;7.32;100.00;98976.44;1740456;82;21079;-79
2021/09/24 03:07:53;;;;;;;20.15;14.10;;;;;;;7.33;100.00;98975.51;1740028;82;21166;-76
2021/09/24 03:10:19;;;;;;;22.85;14.23;;;;;;;7.35;100.00;98965.82;1739324;82;21512;-79
2021/09/24 03:12:47;;;;;;;20.77;15.00;;;;;;;7.37;100.00;98967.55;1739321;82;21092;-79
2021/09/24 03:15:14;;;;;;;25.52;15.55;;;;;;;7.39;100.00;98965.71;1739573;82;21060;-78
2021/09/24 03:17:42;;;;;;;25.37;15.83;;;;;;;7.42;100.00;98960.33;1739464;82;21030;-79
2021/09/24 03:20:10;;;;;;;23.42;15.08;;;;;;;7.42;100.00;98949.39;1739242;82;21044;-80
2021/09/24 03:22:39;;;;;;;22.75;15.28;;;;;;;7.45;100.00;98940.55;1739561;82;21095;-81
2021/09/24 03:25:09;;;;;;;21.55;13.85;;;;;;;7.48;100.00;98941.75;1731408;82;21060;-80
2021/09/24 03:27:38;;;;;;;24.65;15.80;;;;;;;7.49;100.00;98946.05;1716120;82;21048;-81
2021/09/24 03:30:06;;;;;;;25.80;15.65;;;;;;;7.51;100.00;98933.74;1729029;82;21521;-79
2021/09/24 03:32:34;;;;;;;21.68;12.98;;;;;;;7.52;100.00;98927.57;1724037;82;21167;-81
2021/09/24 03:35:03;;;;;;;24.57;14.47;;;;;;;7.52;100.00;98921.02;1717985;82;21556;-79
2021/09/24 03:37:31;;;;;;;24.52;15.60;;;;;;;7.53;100.00;98918.34;1721250;82;20993;-78
2021/09/24 03:39:59;;;;;;;22.93;16.10;;;;;;;7.55;100.00;98911.73;1719289;82;21088;-78
2021/09/24 03:42:25;;;;;;;24.45;14.03;;;;;;;7.55;100.00;98903.87;1720753;82;21126;-78
2021/09/24 03:44:52;;;;;;;26.52;15.15;;;;;;;7.58;100.00;98893.25;1727346;82;21078;-79
2021/09/24 03:47:18;;;;;;;21.93;14.38;;;;;;;7.57;100.00;98887.63;1709841;82;21052;-80
2021/09/24 03:49:45;;;;;;;19.98;13.18;;;;;;;7.57;100.00;98888.94;1708622;82;21034;-81
2021/09/24 03:52:12;;;;;;;23.70;14.95;;;;;;;7.59;100.00;98888.86;1728911;82;21089;-83
2021/09/24 03:54:40;;;;;;;20.08;13.72;;;;;;;7.60;100.00;98880.09;1711666;82;20983;-89
2021/09/24 03:57:06;;;;;;;22.93;14.07;;;;;;;7.60;100.00;98871.77;1706670;82;21069;-83
2021/09/24 03:59:32;;;;;;;21.20;13.70;;;;;;;7.62;100.00;98867.78;1712375;82;21847;-84
2021/09/24 04:01:59;;;;;;;27.52;16.00;;;;;;;7.63;100.00;98861.61;1733439;82;21061;-82
2021/09/24 04:04:26;;;;;;;27.07;15.83;;;;;;;7.64;100.00;98856.30;1716800;82;21532;-85
2021/09/24 04:06:52;;;;;;;26.68;15.35;;;;;;;7.66;100.00;98849.66;1721010;82;22148;-85
2021/09/24 04:09:20;;;;;;;23.32;15.05;;;;;;;7.67;100.00;98847.45;1733800;82;21010;-83
2021/09/24 04:11:48;;;;;;;25.82;14.98;;;;;;;7.67;100.00;98843.05;1733719;82;21050;-85
2021/09/24 04:14:16;;;;;;;22.73;14.93;;;;;;;7.70;100.00;98840.28;1715853;82;21632;-83
2021/09/24 04:16:43;;;;;;;25.60;14.28;;;;;;;7.70;100.00;98832.42;1726070;81;21034;-83
2021/09/24 04:19:11;;;;;;;22.70;15.50;;;;;;;7.72;100.00;98831.89;1769693;81;21655;-77
2021/09/24 04:21:39;;;;;;;26.65;15.63;;;;;;;7.74;100.00;98820.88;1694240;84;21057;-72
2021/09/24 04:24:07;;;;;;;23.02;14.55;;;;;;;7.78;100.00;98809.81;1769924;81;21074;-74
2021/09/24 04:26:35;;;;;;;24.92;12.90;;;;;;;7.81;100.00;98808.81;1747475;81;21575;-74
2021/09/24 04:29:05;;;;;;;23.47;13.20;;;;;;;7.83;100.00;98807.81;1739223;82;21032;-74
2021/09/24 04:31:31;;;;;;;19.77;12.90;;;;;;;7.84;100.00;98803.42;1727197;82;21489;-84
2021/09/24 04:33:58;;;;;;;21.62;13.00;;;;;;;7.88;100.00;98795.80;1721446;82;22210;-76
2021/09/24 04:36:26;;;;;;;22.52;13.50;;;;;;;7.89;100.00;98793.56;1711664;82;21022;-78
2021/09/24 04:38:55;;;;;;;22.17;14.07;;;;;;;7.88;100.00;98788.78;1720812;82;21158;-81
2021/09/24 04:41:22;;;;;;;23.87;14.73;;;;;;;7.91;100.00;98777.30;1734133;82;21513;-82
2021/09/24 04:43:49;;;;;;;19.77;12.10;;;;;;;7.91;100.00;98769.44;1731154;82;21204;-81
2021/09/24 04:46:16;;;;;;;20.57;11.48;;;;;;;7.91;100.00;98769.44;1720453;82;21038;-79
2021/09/24 04:48:43;;;;;;;23.25;13.05;;;;;;;7.92;100.00;98760.67;1725093;82;21042;-80
2021/09/24 04:51:11;;;;;;;20.85;11.15;;;;;;;7.93;100.00;98759.73;1708393;82;21058;-82
2021/09/24 04:53:38;;;;;;;16.42;10.30;;;;;;;7.93;100.00;98752.70;1670925;85;21060;-84
2021/09/24 04:56:06;;;;;;;25.20;14.35;;;;;;;7.95;100.00;98749.55;1664609;85;22001;-81
2021/09/24 04:58:33;;;;;;;20.45;12.43;;;;;;;7.97;100.00;98741.63;1658023;85;21077;-83
2021/09/24 05:00:59;;;;;;;20.40;13.28;;;;;;;7.98;100.00;98749.86;1673746;85;21070;-80
2021/09/24 05:03:26;;;;;;;16.80;10.93;;;;;;;8.00;100.00;98737.53;1656678;85;21307;-78
2021/09/24 05:05:52;;;;;;;18.12;12.40;;;;;;;8.01;100.00;98729.23;1681041;84;21120;-81
2021/09/24 05:08:20;;;;;;;16.00;9.75;;;;;;;8.02;100.00;98723.05;1678589;84;21563;-83
2021/09/24 05:10:49;;;;;;;21.15;12.33;;;;;;;8.02;100.00;98713.87;1679826;84;21101;-84
2021/09/24 05:13:17;;;;;;;20.97;12.98;;;;;;;8.02;100.00;98712.09;1681664;84;21105;-82
2021/09/24 05:15:46;;;;;;;20.77;12.53;;;;;;;8.05;100.00;98719.83;1688893;84;21117;-83
2021/09/24 05:18:14;;;;;;;18.40;11.48;;;;;;;8.05;100.00;98710.66;1694198;84;21069;-72
2021/09/24 05:20:43;;;;;;;21.35;12.20;;;;;;;8.05;100.00;98698.86;1672640;84;21058;-73
2021/09/24 05:23:11;;;;;;;21.45;12.73;;;;;;;8.06;100.00;98692.67;1676357;84;21085;-73
2021/09/24 05:25:39;;;;;;;17.17;10.13;;;;;;;8.07;100.00;98683.87;1679076;84;21587;-72
2021/09/24 05:28:06;;;;;;;21.12;12.58;;;;;;;8.07;100.00;98662.89;1672058;84;21133;-73
2021/09/24 05:30:32;;;;;;;19.30;11.50;;;;;;;8.08;100.00;98663.77;1681794;84;21081;-73
2021/09/24 05:33:00;;;;;;;16.93;10.08;;;;;;;8.08;100.00;98644.11;1680208;84;21572;-73
2021/09/24 05:35:27;;;;;;;20.97;11.28;;;;;;;8.08;100.00;98653.28;1680361;84;21078;-72
2021/09/24 05:37:53;;;;;;;17.17;10.90;;;;;;;8.09;100.00;98644.00;1668738;84;21125;-73
2021/09/24 05:40:20;;;;;;;17.32;11.03;;;;;;;8.11;100.00;98635.60;1675554;84;21127;-73
2021/09/24 05:42:46;;;;;;;20.40;11.95;;;;;;;8.12;100.00;98637.31;1676790;84;21088;-72
2021/09/24 05:45:14;;;;;;;17.07;9.93;;;;;;;8.14;100.00;98629.34;1668630;84;21631;-73
2021/09/24 05:47:42;;;;;;;18.05;11.33;;;;;;;8.13;100.00;98621.95;1658393;85;21053;-73
2021/09/24 05:50:12;;;;;;;18.60;11.05;;;;;;;8.15;100.00;98621.41;1662821;85;21563;-71
2021/09/24 05:52:43;;;;;;;17.55;11.55;;;;;;;8.16;100.00;98622.25;1675718;84;21053;-71
2021/09/24 05:55:11;;;;;;;20.88;10.88;;;;;;;8.18;100.00;98608.13;1670280;84;21173;-72
2021/09/24 05:57:38;;;;;;;20.15;7.17;;;;;;;8.19;100.00;98612.47;1671523;84;21117;-74
2021/09/24 06:00:08;;;;;;;15.40;11.00;;;;;;;8.19;100.00;98612.47;1668599;83;21093;-74
2021/09/24 06:02:39;;;;;;;16.23;10.85;;;;;;;8.23;100.00;98607.06;1667925;84;21106;-73
2021/09/24 06:05:06;;;;;;;17.10;10.48;;;;;;;8.28;100.00;98616.84;1654215;85;21705;-73
2021/09/24 06:07:34;;;;;;;15.10;9.53;;;;;;;8.29;100.00;98615.46;1669090;84;21358;-74
2021/09/24 06:10:00;;;;;;;17.75;10.50;;;;;;;8.32;100.00;98606.58;1657634;85;21680;-74
2021/09/24 06:12:29;;;;;;;16.87;9.75;;;;;;;8.31;100.00;98598.34;1648366;85;21108;-74
2021/09/24 06:15:01;;;;;;;15.48;8.95;;;;;;;8.33;100.00;98599.11;1723245;82;21117;-74
2021/09/24 06:17:24;;;;;;;16.23;8.28;;;;;;;8.36;100.00;98585.83;1712341;82;21066;-75
2021/09/24 06:19:53;;;;;;;18.32;10.88;;;;;;;8.36;100.00;98589.77;1670139;85;21053;-73
2021/09/24 06:22:26;;;;;;;16.25;9.48;;;;;;;8.40;100.00;98580.84;1674542;84;21047;-74
2021/09/24 06:24:52;;;;;;;13.10;8.13;;;;;;;8.39;100.00;98571.23;1672540;84;22141;-74
2021/09/24 06:27:19;;;;;;;13.20;8.13;;;;;;;8.42;100.00;98568.50;1687612;84;21153;-73
2021/09/24 06:29:50;;;;;;;16.37;9.28;;;;;;;8.44;100.00;98573.17;1679797;84;21102;-75
2021/09/24 06:32:16;;;;;;;14.03;9.43;;;;;;;8.46;100.00;98565.23;1670515;85;21101;-75
2021/09/24 06:34:44;;;;;;;16.23;9.35;;;;;;;8.46;100.00;98564.75;1670504;85;21337;-74
2021/09/24 06:37:11;;;;;;;15.25;10.30;;;;;;;8.45;100.00;98559.14;1666088;83;21615;-73
2021/09/24 06:39:38;;;;;;;14.28;9.10;;;;;;;8.46;100.00;98562.13;1682102;84;21067;-73
2021/09/24 06:42:05;;;;;;;16.70;10.50;;;;;;;8.45;100.00;98553.89;1677123;84;21091;-71
2021/09/24 06:44:32;;;;;;;15.55;9.35;;;;;;;8.45;100.00;98540.77;1669139;84;21524;-74
2021/09/24 06:46:58;;;;;;;13.48;8.55;;;;;;;8.47;100.00;98538.92;1671076;85;21485;-73
2021/09/24 06:49:25;;;;;;;14.93;9.83;;;;;;;8.48;100.00;98539.28;1707537;82;21101;-73
2021/09/24 06:51:52;;;;;;;12.78;8.70;;;;;;;8.48;100.00;98544.53;1730093;82;21089;-73
2021/09/24 06:54:19;;;;;;;15.00;9.80;;;;;;;8.51;100.00;98538.27;1724077;82;21100;-73
2021/09/24 06:56:46;;;;;;;14.70;9.90;;;;;;;8.51;100.00;98531.27;1718129;82;21030;-72
2021/09/24 06:59:14;;;;;;;11.95;8.50;;;;;;;8.50;100.00;98531.34;1728564;82;21592;-73
2021/09/24 07:01:44;;;;;;;14.05;8.95;;;;;;;8.51;100.00;98535.20;1718467;82;21062;-72
2021/09/24 07:05:20;;;;;;;13.93;8.13;;;;;;;8.59;100.00;98526.91;1784485;79;28564;-72
2021/09/24 07:07:46;;;;;;;12.85;8.88;;;;;;;8.56;100.00;98530.55;1722604;83;22156;-73
2021/09/24 07:10:13;;;;;;;15.68;9.30;;;;;;;8.58;100.00;98530.00;1693483;84;21942;-75
2021/09/24 07:12:42;;;;;;;11.73;7.72;;;;;;;8.60;100.00;98528.15;1693697;84;20976;-74
2021/09/24 07:15:09;;;;;;;13.35;8.90;;;;;;;8.60;100.00;98520.28;1691407;84;21682;-76
2021/09/24 07:17:35;;;;;;;14.18;9.03;;;;;;;8.60;100.00;98518.97;1646564;86;21571;-73
2021/09/24 07:20:05;;;;;;;15.50;8.80;;;;;;;8.62;100.00;98513.61;1667544;85;21109;-74
2021/09/24 07:22:32;;;;;;;17.02;9.08;;;;;;;8.65;100.00;98508.66;1670218;85;21128;-75
2021/09/24 07:24:58;;;;;;;15.23;9.70;;;;;;;8.67;100.00;98509.42;1693317;84;21536;-73
2021/09/24 07:27:24;;;;;;;18.85;9.80;;;;;;;8.68;100.00;98511.13;1673996;84;21066;-71
2021/09/24 07:33:20;;;;;;;13.60;8.55;;;;;;;8.71;100.00;98499.14;1691807;83;21120;-74
2021/09/24 07:35:48;;;;;;;15.50;9.50;;;;;;;8.74;100.00;98505.08;1694402;83;21059;-73
2021/09/24 07:38:18;;;;;;;15.13;8.68;;;;;;;8.76;100.00;98504.98;1694186;84;21072;-74
2021/09/24 07:40:47;;;;;;;15.70;9.35;;;;;;;8.77;100.00;98491.78;1693536;84;21143;-72
2021/09/24 07:43:15;;;;;;;14.23;9.25;;;;;;;8.80;100.00;98498.16;1693720;84;21075;-73
2021/09/24 07:45:42;;;;;;;15.45;8.03;;;;;;;8.85;100.00;98491.34;1693503;84;21764;-72
2021/09/24 07:48:09;;;;;;;15.35;9.28;;;;;;;8.88;100.00;98489.88;1692790;83;21088;-73
2021/09/24 07:50:35;;;;;;;14.38;9.00;;;;;;;8.90;100.00;98482.73;1693659;84;21187;-74
2021/09/24 07:53:01;;;;;;;15.08;8.55;;;;;;;8.93;100.00;98494.39;1693802;84;21110;-73
2021/09/24 07:55:28;;;;;;;14.03;9.33;;;;;;;8.95;100.00;98482.47;1692280;83;21393;-73
2021/09/24 07:57:58;;;;;;;15.10;8.65;;;;;;;8.96;100.00;98485.02;1693330;83;21087;-74
2021/09/24 08:00:26;;;;;;;14.85;9.33;;;;;;;8.95;100.00;98486.41;1694053;83;21828;-75
2021/09/24 08:02:54;;;;;;;13.30;8.40;;;;;;;8.93;100.00;98486.52;1692294;83;21071;-73
2021/09/24 08:05:21;;;;;;;12.53;8.10;;;;;;;8.91;100.00;98494.94;1679045;83;21130;-72
2021/09/24 08:07:48;;;;;;;13.55;9.08;;;;;;;8.91;100.00;98486.23;1700296;83;21687;-74
2021/09/24 08:10:14;;;;;;;13.55;8.60;;;;;;;8.92;100.00;98485.28;1698924;82;21125;-73
2021/09/24 08:12:42;;;;;;;12.63;7.87;;;;;;;8.94;100.00;98489.51;1692253;83;21135;-72
2021/09/24 08:15:09;;;;;;;14.38;9.50;;;;;;;8.97;100.00;98498.55;1702335;83;21056;-75
2021/09/24 08:17:36;;;;;;;12.90;8.53;;;;;;;9.01;100.00;98492.16;1706821;82;21042;-73
2021/09/24 08:20:06;;;;;;;15.80;8.85;;;;;;;9.06;100.00;98493.69;1696385;83;21134;-74
2021/09/24 08:22:38;;;;;;;16.30;8.95;;;;;;;9.13;100.00;98502.91;1703160;82;21096;-74
2021/09/24 08:25:10;;;;;;;15.75;9.48;;;;;;;9.19;100.00;98490.27;1702362;82;21549;-74
2021/09/24 08:27:39;;;;;;;16.75;9.68;;;;;;;9.29;100.00;98487.95;1711347;83;21114;-74
2021/09/24 08:30:09;;;;;;;15.03;9.53;;;;;;;9.36;100.00;98485.38;1701005;83;21115;-72
2021/09/24 08:32:37;;;;;;;17.65;9.78;;;;;;;9.42;100.00;98487.62;1671391;85;21149;-74
2021/09/24 08:35:10;;;;;;;18.35;10.25;;;;;;;9.50;100.00;98488.95;1703435;83;21092;-74
2021/09/24 08:37:37;;;;;;;20.12;10.70;;;;;;;9.54;100.00;98487.84;1701724;82;21147;-74
2021/09/24 08:40:06;;;;;;;18.65;11.05;;;;;;;9.57;100.00;98492.91;1705038;83;21705;-73
2021/09/24 08:42:39;;;;;;;19.82;11.85;;;;;;;9.59;100.00;98491.91;1708906;82;21117;-73
2021/09/24 08:45:12;;;;;;;24.45;12.05;;;;;;;9.59;100.00;98485.78;1702992;83;21910;-73
2021/09/24 08:47:39;;;;;;;22.10;11.30;;;;;;;9.63;100.00;98484.67;1703533;83;21086;-73
2021/09/24 08:50:08;;;;;;;22.58;11.12;;;;;;;9.66;100.00;98480.09;1702021;83;21106;-73
2021/09/24 08:52:37;;;;;;;20.20;11.08;;;;;;;9.69;100.00;98493.52;1700417;83;21489;-73
2021/09/24 08:55:08;;;;;;;18.42;10.18;;;;;;;9.77;100.00;98492.58;1710974;83;21083;-74
2021/09/24 08:57:35;;;;;;;18.42;10.30;;;;;;;9.86;100.00;98494.66;1711799;82;21110;-73
2021/09/24 09:00:05;;;;;;;19.85;10.72;;;;;;;9.96;100.00;98491.47;1710751;83;21110;-72
2021/09/24 09:03:05;;;;;;;21.57;10.40;;;;;;;10.06;100.00;98489.98;1702604;82;21104;-74
2021/09/24 09:05:49;;;;;;;19.17;11.30;;;;;;;10.21;100.00;98478.50;1714098;82;21026;-72
2021/09/24 09:08:24;;;;;;;25.35;12.15;;;;;;;10.45;100.00;98464.81;1716001;83;21105;-72
2021/09/24 09:11:00;;;;;;;17.73;10.58;;;;;;;10.66;100.00;98471.34;1715894;83;21073;-73
2021/09/24 09:13:31;;;;;;;19.32;9.95;;;;;;;10.83;100.00;98470.72;1711678;83;21019;-72
2021/09/24 09:16:10;;;;;;;14.95;8.78;;;;;;;10.95;100.00;98473.91;1712574;82;21130;-71
2021/09/24 09:18:41;;;;;;;20.75;9.15;;;;;;;11.05;100.00;98463.60;1671313;85;21701;-71
2021/09/24 09:21:10;;;;;;;17.77;8.70;;;;;;;11.21;100.00;98467.39;1708523;82;21084;-72
2021/09/24 09:23:41;;;;;;;18.35;9.70;;;;;;;11.78;100.00;98469.70;1711403;81;21115;-72
2021/09/24 09:26:10;;;;;;;16.00;10.00;;;;;;;12.53;100.00;98460.48;1718864;83;21118;-72
2021/09/24 09:28:59;;;;;;;13.98;8.45;;;;;;;13.33;100.00;98453.84;1717843;82;22316;-71
2021/09/24 09:31:32;;;;;;;13.93;7.47;;;;;;;13.85;100.00;98450.73;1713773;83;21049;-72
2021/09/24 09:34:02;;;;;;;14.70;7.33;;;;;;;14.05;97.13;98438.57;1711267;83;21062;-72
2021/09/24 09:36:37;;;;;;;14.50;7.12;;;;;;;13.91;95.66;98440.13;1712429;83;21609;-72
2021/09/24 09:39:10;;;;;;;11.68;6.67;;;;;;;14.16;98.56;98444.84;1718856;81;21088;-73
2021/09/24 09:41:50;;;;;;;13.08;6.95;;;;;;;14.47;98.52;98438.81;1719934;82;21134;-73
2021/09/24 09:44:31;;;;;;;14.47;7.42;;;;;;;14.54;93.42;98439.63;1701675;83;21041;-72
2021/09/24 09:46:58;;;;;;;17.12;6.62;;;;;;;14.62;90.45;98434.59;1682334;85;21377;-71
2021/09/24 09:49:27;;;;;;;17.55;6.60;;;;;;;14.53;92.26;98441.44;1711545;82;21052;-74
2021/09/24 09:52:10;;;;;;;12.23;6.22;;;;;;;14.41;91.56;98435.80;1684052;85;21575;-74
2021/09/24 09:54:37;;;;;;;9.60;5.83;;;;;;;14.52;92.33;98442.91;1708283;82;21524;-74
2021/09/24 09:57:11;;;;;;;10.78;5.55;;;;;;;14.40;88.37;98446.02;1653534;83;21052;-72
2021/09/24 09:59:38;;;;;;;6.53;4.47;;;;;;;14.24;89.42;98448.58;1680507;83;21061;-76
2021/09/24 10:02:18;;;;;;;9.65;4.78;;;;;;;14.06;88.88;98445.56;1687216;82;21049;-76
2021/09/24 10:04:53;;;;;;;9.20;4.10;;;;;;;13.91;89.48;98450.72;1687735;84;21105;-75
2021/09/24 10:07:25;;;;;;;7.35;3.95;;;;;;;13.71;90.85;98456.24;1648624;86;22737;-76
2021/09/24 10:10:10;;;;;;;8.78;4.00;;;;;;;13.57;94.09;98461.72;1681958;83;21210;-76
2021/09/24 10:12:38;;;;;;;7.03;4.70;;;;;;;13.33;94.73;98456.49;1682538;85;21544;-74
2021/09/24 10:15:08;;;;;;;6.35;4.15;;;;;;;13.36;95.67;98458.89;1650117;85;21584;-79
2021/09/24 10:17:35;;;;;;;6.22;4.00;;;;;;;13.84;97.57;98452.99;1653828;85;21056;-78
2021/09/24 10:20:03;;;;;;;7.85;4.22;;;;;;;14.53;93.78;98448.55;1685801;85;21144;-79
2021/09/24 10:22:39;;;;;;;5.97;3.92;;;;;;;15.17;89.72;98448.64;1646998;86;21077;-78
2021/09/24 10:25:03;;;;;;;6.03;3.40;;;;;;;15.62;84.25;98452.41;1682525;84;21203;-80
2021/09/24 10:27:36;;;;;;;9.38;3.80;;;;;;;16.01;83.02;98452.66;1671498;85;21097;-78
2021/09/24 10:30:11;;;;;;;6.25;3.45;;;;;;;16.35;78.81;98444.40;1648966;85;21068;-79
2021/09/24 10:32:37;;;;;;;8.20;3.40;;;;;;;16.62;74.08;98445.61;1648058;86;21032;-78
2021/09/24 10:35:09;;;;;;;6.37;3.08;;;;;;;16.73;73.92;98444.17;1671649;85;21517;-79
2021/09/24 10:37:38;;;;;;;7.47;3.30;;;;;;;17.04;72.20;98440.94;1671946;83;21078;-79
2021/09/24 10:40:26;;;;;;;6.30;3.20;;;;;;;17.42;71.54;98433.12;1681114;84;21098;-78
2021/09/24 10:43:01;;;;;;;5.92;1.90;;;;;;;17.96;70.04;98442.27;1681596;84;20986;-78
2021/09/24 10:45:42;;;;;;;3.35;2.10;;;;;;;18.28;59.83;98454.36;1645305;85;21159;-79
2021/09/24 10:48:27;;;;;;;3.20;1.95;;;;;;;18.13;60.46;98454.84;1648582;85;21080;-80
2021/09/24 10:50:57;;;;;;;3.70;1.60;;;;;;;18.42;58.83;98460.53;1646403;85;21076;-79
2021/09/24 10:53:39;;;;;;;4.30;1.60;;;;;;;18.52;59.70;98463.14;1645470;86;21082;-78
2021/09/24 10:56:12;;;;;;;6.75;1.50;;;;;;;18.48;55.90;98470.62;1676475;83;21148;-81
2021/09/24 10:58:41;;;;;;;4.70;1.52;;;;;;;18.23;54.34;98460.97;1650507;86;21113;-79
2021/09/24 11:01:15;;;;;;;4.62;1.37;;;;;;;17.93;56.47;98467.38;1682904;84;21125;-79
2021/09/24 11:04:09;;;;;;;6.72;1.87;;;;;;;17.65;58.84;98466.92;1683624;85;21053;-81
2021/09/24 11:06:46;;;;;;;2.85;1.10;;;;;;;17.36;60.49;98459.78;1702171;83;21531;-80
2021/09/24 11:09:16;;;;;;;6.20;1.62;;;;;;;17.19;59.94;98471.48;1726004;83;21065;-82
2021/09/24 11:11:47;;;;;;;6.37;1.32;;;;;;;16.81;59.71;98466.94;1725997;83;21149;-82
2021/09/24 11:14:42;;;;;;;2.40;1.20;;;;;;;16.39;59.45;98473.72;1696439;83;21110;-81
2021/09/24 11:17:15;;;;;;;4.87;1.20;;;;;;;16.15;60.30;98473.55;1661922;86;21084;-83
2021/09/24 11:19:47;;;;;;;5.55;1.62;;;;;;;15.99;61.01;98474.52;1656158;86;21057;-85
2021/09/24 11:22:24;;;;;;;6.08;1.52;;;;;;;15.86;61.68;98465.91;1662185;84;21056;-82
2021/09/24 11:25:00;;;;;;;5.70;1.92;;;;;;;15.72;63.38;98473.23;1636620;87;21165;-81
2021/09/24 11:27:40;;;;;;;5.35;1.55;;;;;;;15.55;62.59;98461.83;1644165;87;21062;-81
2021/09/24 11:30:22;;;;;;;6.28;2.40;;;;;;;15.58;63.72;98465.57;1687336;84;21085;-82
2021/09/24 11:32:59;;;;;;;9.05;2.42;;;;;;;15.68;63.05;98457.17;1660388;85;21057;-80
2021/09/24 11:35:38;;;;;;;5.10;1.50;;;;;;;15.74;63.10;98457.19;1645328;85;21678;-81